Time;durP1;ratioP1;P1;durP2;ratioP2;P2;SDS_P1;SDS_P2;PMS_P1;PMS_P2;Temp;Humidity;BMP_temperature;BMP_pressure;BME280_temperature;BME280_humidity;BME280_pressure;Samples;Min_cycle;Max_cycle;Signal;HPM_P1;HPM_P2
2023/03/01 00:00:37;;;;;;;36.20;23.07;;;;;;;3.83;46.89;98173.19;4954144;28;20429;-69
2023/03/01 00:03:03;;;;;;;31.07;20.27;;;;;;;3.87;46.62;98167.84;4956060;28;20264;-68
2023/03/01 00:05:28;;;;;;;36.00;21.23;;;;;;;3.87;46.48;98162.66;4953730;28;20684;-70
2023/03/01 00:07:54;;;;;;;40.67;21.27;;;;;;;3.84;46.47;98167.09;4954026;28;20178;-68
2023/03/01 00:10:19;;;;;;;34.37;19.33;;;;;;;3.77;47.52;98164.91;4959384;28;20562;-68
2023/03/01 00:12:44;;;;;;;35.23;21.83;;;;;;;3.86;46.65;98172.16;4956721;28;20178;-68
2023/03/01 00:15:11;;;;;;;50.77;28.07;;;;;;;3.80;46.52;98181.13;4954599;28;20277;-67
2023/03/01 00:17:36;;;;;;;44.03;27.13;;;;;;;3.74;47.24;98173.72;4951499;28;20562;-69
2023/03/01 00:20:02;;;;;;;55.77;32.30;;;;;;;3.72;47.05;98170.38;4952011;28;20642;-68
2023/03/01 00:22:30;;;;;;;62.43;34.10;;;;;;;3.65;46.97;98171.63;4963715;28;20194;-69
2023/03/01 00:24:55;;;;;;;53.57;31.10;;;;;;;3.58;47.41;98173.72;4959823;28;20210;-66
2023/03/01 00:27:21;;;;;;;52.60;28.87;;;;;;;3.52;47.10;98166.28;4954105;28;20485;-68
2023/03/01 00:29:46;;;;;;;35.93;22.30;;;;;;;3.60;47.34;98171.03;4952199;28;20274;-68
2023/03/01 00:32:12;;;;;;;37.20;22.27;;;;;;;3.56;47.57;98169.53;4951474;28;20411;-68
2023/03/01 00:34:37;;;;;;;37.67;23.20;;;;;;;3.58;47.39;98172.88;4952138;28;20342;-69
2023/03/01 00:37:05;;;;;;;38.73;23.10;;;;;;;3.62;47.13;98169.22;4951955;28;20313;-66
2023/03/01 00:39:32;;;;;;;33.63;21.53;;;;;;;3.63;47.08;98176.06;4952052;28;20718;-69
2023/03/01 00:41:57;;;;;;;34.73;20.30;;;;;;;3.52;47.80;98167.13;4957225;28;20430;-69
2023/03/01 00:44:23;;;;;;;37.33;22.20;;;;;;;3.59;47.26;98169.38;4951632;28;20480;-69
2023/03/01 00:46:48;;;;;;;35.87;22.40;;;;;;;3.56;47.45;98165.19;4951605;28;20626;-69
2023/03/01 00:49:14;;;;;;;45.50;29.47;;;;;;;3.54;47.51;98162.66;4952091;28;20225;-68
2023/03/01 00:51:41;;;;;;;52.97;31.47;;;;;;;3.43;47.33;98159.84;4957106;28;20182;-69
2023/03/01 00:54:10;;;;;;;45.10;25.57;;;;;;;3.44;47.33;98161.50;4953585;28;20182;-68
2023/03/01 00:56:35;;;;;;;38.97;24.70;;;;;;;3.39;47.77;98158.34;4934540;29;20528;-69
2023/03/01 00:59:01;;;;;;;38.77;25.23;;;;;;;3.45;47.60;98155.41;4947050;28;20590;-68
2023/03/01 01:01:31;;;;;;;33.77;22.17;;;;;;;3.43;47.80;98161.59;4921413;28;20658;-68
2023/03/01 01:04:01;;;;;;;33.53;20.80;;;;;;;3.44;47.81;98155.50;4955432;28;20210;-69
2023/03/01 01:06:29;;;;;;;32.50;21.03;;;;;;;3.39;47.29;98150.56;4958931;28;20457;-67
2023/03/01 01:08:56;;;;;;;35.83;22.60;;;;;;;3.34;47.41;98144.78;4951340;28;20542;-68
2023/03/01 01:11:23;;;;;;;38.63;24.67;;;;;;;3.23;48.09;98151.41;4950495;28;20845;-68
2023/03/01 01:13:48;;;;;;;37.43;25.47;;;;;;;3.27;47.60;98153.84;4951029;28;20482;-68
2023/03/01 01:16:16;;;;;;;39.10;23.13;;;;;;;3.20;47.87;98153.34;4950286;28;20485;-68
2023/03/01 01:18:42;;;;;;;37.03;21.77;;;;;;;3.23;47.99;98138.44;4951394;28;20570;-68
2023/03/01 01:21:10;;;;;;;34.00;21.27;;;;;;;3.27;47.99;98141.69;4950340;28;20426;-69
2023/03/01 01:23:37;;;;;;;31.23;20.87;;;;;;;3.23;48.25;98153.13;4955782;28;20178;-68
2023/03/01 01:26:06;;;;;;;35.73;21.23;;;;;;;3.22;48.38;98147.13;4961863;28;20863;-67
2023/03/01 01:28:32;;;;;;;32.10;20.10;;;;;;;3.23;47.88;98145.38;4958239;28;20449;-69
2023/03/01 01:30:57;;;;;;;33.93;19.93;;;;;;;3.19;48.04;98136.13;4950238;28;20430;-70
2023/03/01 01:33:23;;;;;;;29.90;18.73;;;;;;;3.24;47.66;98139.28;4950724;28;20276;-69
2023/03/01 01:35:48;;;;;;;29.77;19.37;;;;;;;3.21;47.79;98123.91;4957187;28;20293;-68
2023/03/01 01:38:13;;;;;;;30.10;18.53;;;;;;;3.14;48.02;98136.38;4960691;28;20209;-67
2023/03/01 01:40:43;;;;;;;29.60;19.87;;;;;;;3.08;47.94;98136.69;4950712;28;20266;-69
2023/03/01 01:43:17;;;;;;;30.77;18.93;;;;;;;3.09;48.40;98133.16;4956119;28;20238;-68
2023/03/01 01:45:43;;;;;;;29.73;18.40;;;;;;;3.06;48.05;98131.59;4933649;29;20474;-69
2023/03/01 01:48:13;;;;;;;27.17;17.27;;;;;;;2.94;48.36;98121.88;4960385;28;20515;-68
2023/03/01 01:50:40;;;;;;;29.13;18.37;;;;;;;2.83;49.37;98126.81;4935442;28;20604;-67
2023/03/01 01:53:17;;;;;;;29.17;18.70;;;;;;;2.77;49.14;98127.97;4933350;28;20454;-67
2023/03/01 01:55:48;;;;;;;25.00;16.67;;;;;;;2.86;48.97;98124.88;4965000;28;20970;-68
2023/03/01 01:58:18;;;;;;;25.27;16.17;;;;;;;2.91;48.94;98122.88;4939803;28;20466;-68
2023/03/01 02:00:43;;;;;;;27.07;16.20;;;;;;;2.90;49.34;98116.00;4922699;28;20425;-68
2023/03/01 02:03:37;;;;;;;29.00;17.13;;;;;;;2.99;49.31;98111.28;4925160;28;20518;-68
2023/03/01 02:06:23;;;;;;;24.57;15.03;;;;;;;3.05;49.37;98105.75;4935188;29;20297;-68
2023/03/01 02:08:50;;;;;;;29.33;16.97;;;;;;;3.22;48.91;98112.59;4928708;29;20954;-67
2023/03/01 02:11:17;;;;;;;24.03;16.00;;;;;;;3.33;48.89;98106.84;4932280;28;20445;-68
2023/03/01 02:13:42;;;;;;;29.00;16.73;;;;;;;3.33;48.52;98112.03;4955182;28;20473;-68
2023/03/01 02:16:10;;;;;;;25.20;16.30;;;;;;;3.37;48.52;98104.00;4932867;28;20442;-70
2023/03/01 02:18:37;;;;;;;29.40;15.93;;;;;;;3.44;48.53;98106.25;4939891;29;20301;-69
2023/03/01 02:21:21;;;;;;;28.27;17.30;;;;;;;3.48;48.96;98093.03;4957969;28;20508;-67
2023/03/01 02:23:47;;;;;;;26.83;16.20;;;;;;;3.55;48.72;98088.34;4944668;28;20410;-69
2023/03/01 02:26:31;;;;;;;30.13;17.37;;;;;;;3.50;48.92;98082.56;4953998;28;20825;-68
2023/03/01 02:28:56;;;;;;;26.40;16.90;;;;;;;3.60;48.56;98080.31;4950144;28;20178;-69
2023/03/01 02:34:07;;;;;;;27.63;16.07;;;;;;;3.40;48.63;98087.47;4970465;28;20185;-68
2023/03/01 02:36:38;;;;;;;26.33;17.27;;;;;;;3.49;48.75;98084.34;4939299;28;20480;-67
2023/03/01 02:39:06;;;;;;;26.97;16.97;;;;;;;3.48;48.44;98074.91;4932769;29;20678;-67
2023/03/01 02:41:35;;;;;;;28.67;16.80;;;;;;;3.52;48.18;98078.16;4946786;28;20434;-69
2023/03/01 02:44:02;;;;;;;28.17;16.80;;;;;;;3.31;48.96;98075.00;4947360;29;20418;-70
2023/03/01 02:46:27;;;;;;;27.70;16.43;;;;;;;3.42;49.33;98070.03;4936300;28;20446;-69
2023/03/01 02:48:55;;;;;;;31.00;16.83;;;;;;;3.52;48.67;98066.03;4954023;28;20907;-67
2023/03/01 02:51:31;;;;;;;26.67;17.37;;;;;;;3.64;48.99;98063.66;4953601;28;20213;-69
2023/03/01 02:54:25;;;;;;;24.37;15.47;;;;;;;3.62;48.70;98063.72;4953793;28;20428;-69
2023/03/01 02:56:51;;;;;;;22.80;14.80;;;;;;;3.74;48.37;98056.16;4941190;29;20544;-69
2023/03/01 02:59:18;;;;;;;26.23;17.10;;;;;;;3.80;47.89;98053.22;4938935;28;20986;-69
2023/03/01 03:01:43;;;;;;;27.80;16.93;;;;;;;3.81;48.23;98047.13;4947980;29;20183;-67
2023/03/01 03:04:11;;;;;;;22.17;16.50;;;;;;;3.93;48.32;98048.16;4953260;28;20429;-68
2023/03/01 03:06:37;;;;;;;23.10;15.67;;;;;;;3.97;47.90;98044.47;4951150;28;20277;-69
2023/03/01 03:09:03;;;;;;;23.27;15.50;;;;;;;4.03;47.61;98045.88;4953257;28;20528;-68
2023/03/01 03:11:29;;;;;;;24.17;15.90;;;;;;;4.10;48.15;98049.75;4963741;28;20741;-69
2023/03/01 03:13:54;;;;;;;26.03;16.77;;;;;;;4.09;47.56;98038.56;4944179;29;20521;-70
2023/03/01 03:16:20;;;;;;;22.77;16.20;;;;;;;4.13;47.98;98039.19;4954470;28;20285;-69
2023/03/01 03:18:46;;;;;;;27.87;16.83;;;;;;;4.13;47.28;98034.00;4958647;28;20714;-69
2023/03/01 03:21:12;;;;;;;28.90;16.97;;;;;;;4.17;47.90;98035.50;4935388;28;20430;-68
2023/03/01 03:23:38;;;;;;;24.83;16.30;;;;;;;4.19;48.06;98025.03;4953152;28;20422;-70
2023/03/01 03:26:05;;;;;;;27.87;16.73;;;;;;;4.20;47.67;98035.31;4964959;28;20810;-69
2023/03/01 03:28:34;;;;;;;28.07;16.57;;;;;;;4.22;47.34;98035.22;4953085;28;20426;-68
2023/03/01 03:31:03;;;;;;;24.77;17.30;;;;;;;4.23;47.18;98027.34;4953752;28;20469;-70
2023/03/01 03:33:31;;;;;;;26.60;17.23;;;;;;;4.24;46.84;98031.59;4952715;28;21974;-69
2023/03/01 03:35:57;;;;;;;25.00;16.60;;;;;;;4.28;47.60;98027.91;4952879;28;20438;-68
2023/03/01 03:38:22;;;;;;;26.80;18.00;;;;;;;4.28;47.05;98021.91;4952151;28;20992;-69
2023/03/01 03:41:00;;;;;;;26.50;16.80;;;;;;;4.32;47.40;98028.53;4952379;28;20186;-69
2023/03/01 03:43:26;;;;;;;26.60;17.43;;;;;;;4.28;47.10;98030.50;4965106;28;20197;-69
2023/03/01 03:45:52;;;;;;;26.77;16.87;;;;;;;4.29;47.26;98021.78;4954559;28;20446;-69
2023/03/01 03:48:18;;;;;;;28.47;16.50;;;;;;;4.31;47.52;98029.47;4951881;28;20224;-68
2023/03/01 03:50:48;;;;;;;24.83;16.30;;;;;;;4.37;47.01;98029.13;4957092;28;20186;-69
2023/03/01 03:53:13;;;;;;;29.70;17.17;;;;;;;4.40;46.94;98034.13;4954368;28;20422;-68
2023/03/01 03:55:39;;;;;;;25.67;16.47;;;;;;;4.44;47.59;98024.38;4965729;28;20468;-70
2023/03/01 03:58:06;;;;;;;26.13;16.90;;;;;;;4.38;46.93;98020.41;4952472;28;20203;-68
2023/03/01 04:00:37;;;;;;;26.03;17.70;;;;;;;4.40;47.35;98015.97;4951787;28;20650;-67
2023/03/01 04:03:03;;;;;;;26.00;16.53;;;;;;;4.45;47.24;98013.06;4959170;28;20421;-69
2023/03/01 04:05:28;;;;;;;26.00;17.50;;;;;;;4.48;47.42;98014.63;4951265;28;20473;-70
2023/03/01 04:08:06;;;;;;;26.87;16.93;;;;;;;4.45;46.74;98013.91;4952104;28;20437;-69
2023/03/01 04:10:37;;;;;;;25.73;15.70;;;;;;;4.43;47.04;98005.38;4959907;28;20194;-70
2023/03/01 04:13:04;;;;;;;30.20;17.27;;;;;;;4.42;46.85;98003.69;4965956;28;20440;-69
2023/03/01 04:15:31;;;;;;;29.30;17.63;;;;;;;4.42;46.86;98002.88;4952859;28;20866;-70
2023/03/01 04:17:56;;;;;;;25.67;16.90;;;;;;;4.43;47.45;97996.75;4957388;28;20469;-68
2023/03/01 04:20:24;;;;;;;25.50;16.73;;;;;;;4.52;46.87;97995.38;4953687;28;20426;-69
2023/03/01 04:23:10;;;;;;;28.10;17.70;;;;;;;4.42;46.81;98000.28;4952519;28;20190;-69
2023/03/01 04:25:41;;;;;;;28.00;18.20;;;;;;;4.53;46.90;97997.03;4942023;28;20462;-69
2023/03/01 04:28:08;;;;;;;28.03;16.97;;;;;;;4.50;47.01;97999.81;4950203;28;20480;-70
2023/03/01 04:30:35;;;;;;;26.40;16.70;;;;;;;4.48;47.34;97994.69;4950560;28;20437;-70
2023/03/01 04:33:08;;;;;;;28.40;17.40;;;;;;;4.34;47.95;97994.72;4964597;28;20425;-69
2023/03/01 04:35:34;;;;;;;26.37;16.70;;;;;;;4.37;47.57;97995.38;4950583;28;20442;-70
2023/03/01 04:38:00;;;;;;;27.67;17.63;;;;;;;4.29;47.84;98001.03;4934774;29;20465;-69
2023/03/01 04:40:26;;;;;;;26.93;18.20;;;;;;;4.26;48.07;97995.19;4950363;28;20430;-68
2023/03/01 04:42:51;;;;;;;27.27;17.80;;;;;;;4.33;47.20;97996.47;4956681;28;20182;-70
2023/03/01 04:45:17;;;;;;;29.03;18.70;;;;;;;4.39;47.18;97992.66;4951156;28;20192;-68
2023/03/01 04:47:44;;;;;;;27.47;19.00;;;;;;;4.42;48.06;97998.50;4933724;29;20193;-67
2023/03/01 04:50:11;;;;;;;28.40;19.20;;;;;;;4.35;47.78;97986.84;4958308;28;20194;-68
2023/03/01 04:52:36;;;;;;;27.80;17.53;;;;;;;4.32;47.95;97992.22;4951121;28;20762;-69
2023/03/01 04:55:03;;;;;;;34.13;21.57;;;;;;;4.37;47.86;97982.41;4951856;28;20484;-69
2023/03/01 04:57:29;;;;;;;33.20;20.17;;;;;;;4.33;48.03;97983.50;4954667;28;20214;-70
2023/03/01 04:59:54;;;;;;;28.87;18.90;;;;;;;4.39;47.61;97983.13;4951733;28;20429;-71
2023/03/01 05:02:20;;;;;;;30.13;19.60;;;;;;;4.34;48.06;97990.38;4951892;28;20819;-68
2023/03/01 05:04:45;;;;;;;28.23;18.20;;;;;;;4.33;48.28;97988.69;4952101;28;20196;-67
2023/03/01 05:07:12;;;;;;;28.50;18.30;;;;;;;4.39;48.28;97992.66;4952081;28;20233;-69
2023/03/01 05:09:38;;;;;;;30.40;19.83;;;;;;;4.25;47.90;97994.34;4950165;28;20190;-69
2023/03/01 05:12:04;;;;;;;28.40;19.00;;;;;;;4.25;48.33;97986.56;4953903;28;20433;-68
2023/03/01 05:14:29;;;;;;;28.50;18.67;;;;;;;4.46;48.50;97984.41;4956830;28;20288;-70
2023/03/01 05:16:55;;;;;;;27.70;18.60;;;;;;;4.50;48.42;97986.84;4950929;28;20224;-69
2023/03/01 05:19:22;;;;;;;32.30;18.50;;;;;;;4.55;48.40;97987.34;4950553;28;20214;-70
2023/03/01 05:22:06;;;;;;;27.03;17.83;;;;;;;4.39;48.39;97990.94;4951713;28;20179;-70
2023/03/01 05:24:33;;;;;;;26.20;17.80;;;;;;;4.51;48.27;97981.53;4951569;28;20426;-69
2023/03/01 05:26:59;;;;;;;26.13;17.17;;;;;;;4.49;48.59;97987.75;4950738;28;20573;-69
2023/03/01 05:29:26;;;;;;;29.77;17.20;;;;;;;4.54;48.26;97983.09;4949441;28;20433;-71
2023/03/01 05:32:00;;;;;;;26.33;18.03;;;;;;;4.54;48.14;97985.69;4950432;28;20182;-69
2023/03/01 05:34:27;;;;;;;43.70;24.83;;;;;;;4.60;47.65;97985.31;4957605;28;20429;-71
2023/03/01 05:36:54;;;;;;;30.77;19.90;;;;;;;4.57;47.93;97985.50;4952805;28;20480;-69
2023/03/01 05:39:25;;;;;;;33.17;21.73;;;;;;;4.52;47.82;97985.78;4949344;28;20489;-69
2023/03/01 05:41:55;;;;;;;38.10;24.60;;;;;;;4.49;48.38;97982.56;4954862;28;20426;-69
2023/03/01 05:44:21;;;;;;;43.03;25.83;;;;;;;4.60;48.42;97990.53;4957860;28;20534;-68
2023/03/01 05:46:47;;;;;;;31.57;20.43;;;;;;;4.61;48.00;97984.41;4948319;28;20909;-69
2023/03/01 05:49:13;;;;;;;39.30;22.73;;;;;;;4.58;48.21;97989.78;4953074;28;20186;-69
2023/03/01 05:51:39;;;;;;;34.77;22.57;;;;;;;4.53;48.47;97986.66;4960582;28;20512;-69
2023/03/01 05:54:05;;;;;;;29.87;20.20;;;;;;;4.54;47.97;97989.13;4955531;28;20454;-69
2023/03/01 05:56:35;;;;;;;32.07;20.03;;;;;;;4.59;48.18;97978.47;4955025;28;20497;-69
2023/03/01 05:59:02;;;;;;;28.43;18.30;;;;;;;4.63;47.51;97974.75;4949703;28;20207;-70
2023/03/01 06:01:28;;;;;;;30.00;19.23;;;;;;;4.57;48.15;97968.19;4949787;28;20426;-69
2023/03/01 06:03:53;;;;;;;30.67;19.00;;;;;;;4.56;47.92;97974.31;4950451;28;20430;-69
2023/03/01 06:06:18;;;;;;;31.00;19.47;;;;;;;4.57;48.06;97975.13;4949403;28;20221;-68
2023/03/01 06:08:44;;;;;;;30.93;19.27;;;;;;;4.60;47.77;97974.94;4950183;28;20269;-69
2023/03/01 06:11:10;;;;;;;33.83;19.60;;;;;;;4.70;48.10;97972.59;4957678;28;20677;-69
2023/03/01 06:13:35;;;;;;;32.87;20.90;;;;;;;4.61;47.56;97974.00;4945854;28;20288;-71
2023/03/01 06:16:03;;;;;;;32.53;18.20;;;;;;;4.59;48.37;97968.94;4955058;28;20720;-71
2023/03/01 06:18:29;;;;;;;30.40;18.70;;;;;;;4.58;47.61;97962.06;4934614;28;20718;-70
2023/03/01 06:20:55;;;;;;;26.47;17.93;;;;;;;4.63;47.67;97959.19;4948208;28;20429;-70
2023/03/01 06:23:22;;;;;;;26.73;18.10;;;;;;;4.65;47.38;97966.84;4949580;28;20293;-71
2023/03/01 06:25:48;;;;;;;28.37;17.53;;;;;;;4.62;47.35;97962.69;4947254;28;20465;-68
2023/03/01 06:28:13;;;;;;;32.63;19.30;;;;;;;4.64;48.02;97955.66;4954660;28;20430;-71
2023/03/01 06:30:39;;;;;;;33.40;20.40;;;;;;;4.65;47.27;97962.50;4949325;28;20368;-70
2023/03/01 06:33:04;;;;;;;31.83;18.90;;;;;;;4.62;48.00;97960.09;4932666;29;20259;-69
2023/03/01 06:35:30;;;;;;;32.37;19.07;;;;;;;4.62;47.54;97967.91;4956949;28;20185;-70
2023/03/01 06:37:57;;;;;;;27.43;17.80;;;;;;;4.61;48.39;97967.03;4953463;28;20206;-72
2023/03/01 06:40:22;;;;;;;30.50;19.37;;;;;;;4.64;47.92;97968.63;4952652;28;20952;-72
2023/03/01 06:42:49;;;;;;;30.77;18.60;;;;;;;4.73;47.09;97969.78;4954954;28;20431;-71
2023/03/01 06:45:15;;;;;;;33.40;19.83;;;;;;;4.85;47.32;97974.22;4957846;28;20667;-72
2023/03/01 06:47:40;;;;;;;27.07;17.93;;;;;;;4.88;47.38;97970.59;4954475;28;20491;-72
2023/03/01 06:50:07;;;;;;;33.03;19.70;;;;;;;4.89;46.84;97972.28;4950199;28;20210;-72
2023/03/01 06:52:32;;;;;;;29.70;18.03;;;;;;;4.95;47.39;97966.69;4949601;28;20277;-71
2023/03/01 06:54:58;;;;;;;29.93;18.87;;;;;;;4.98;47.10;97966.47;4954328;28;20500;-71
2023/03/01 06:57:23;;;;;;;32.77;19.60;;;;;;;5.10;46.93;97966.63;4948938;28;20227;-72
2023/03/01 06:59:49;;;;;;;28.87;19.37;;;;;;;5.09;46.89;97971.00;4949180;28;20183;-71
2023/03/01 07:02:15;;;;;;;27.93;18.90;;;;;;;5.22;46.62;97978.81;4949341;28;20271;-72
2023/03/01 07:04:40;;;;;;;29.60;18.70;;;;;;;5.33;46.24;97972.94;4951829;28;20217;-71
2023/03/01 07:07:06;;;;;;;29.07;19.00;;;;;;;5.40;45.42;97962.97;4951161;28;20198;-71
2023/03/01 07:09:31;;;;;;;30.07;18.80;;;;;;;5.34;46.07;97959.81;4934062;28;20269;-70
2023/03/01 07:11:57;;;;;;;27.00;18.90;;;;;;;5.33;45.31;97960.75;4954871;28;20186;-69
2023/03/01 07:14:24;;;;;;;30.70;19.03;;;;;;;5.32;45.51;97966.88;4955637;28;20887;-70
2023/03/01 07:16:49;;;;;;;28.63;19.80;;;;;;;5.20;45.50;97965.94;4955208;28;20221;-70
2023/03/01 07:19:15;;;;;;;31.40;18.33;;;;;;;5.11;45.65;97965.69;4948861;28;20978;-70
2023/03/01 07:21:40;;;;;;;33.50;19.73;;;;;;;5.11;45.94;97963.09;4949036;28;20189;-69
2023/03/01 07:24:07;;;;;;;36.13;21.27;;;;;;;5.08;46.18;97959.75;4931738;29;20682;-69
2023/03/01 07:26:32;;;;;;;26.47;17.47;;;;;;;5.08;45.87;97954.56;4952479;28;20209;-69
2023/03/01 07:29:02;;;;;;;30.50;18.60;;;;;;;5.06;46.27;97946.03;4952925;28;20866;-69
2023/03/01 07:31:27;;;;;;;29.63;20.03;;;;;;;5.06;46.33;97946.03;4949264;28;20542;-72
2023/03/01 07:33:54;;;;;;;36.13;20.13;;;;;;;5.07;46.19;97939.91;4961006;28;20537;-71
2023/03/01 07:36:19;;;;;;;42.43;20.77;;;;;;;5.03;46.10;97941.06;4958198;28;20224;-72
2023/03/01 07:38:45;;;;;;;30.03;19.50;;;;;;;4.98;46.57;97942.28;4937308;28;20461;-72
2023/03/01 07:41:10;;;;;;;31.17;20.53;;;;;;;5.01;46.17;97945.50;4962842;28;20187;-72
2023/03/01 07:43:35;;;;;;;34.93;19.87;;;;;;;5.09;45.95;97942.41;4961608;28;20270;-71
2023/03/01 07:46:01;;;;;;;32.87;21.10;;;;;;;5.15;45.94;97939.41;4962130;28;20285;-71
2023/03/01 07:48:27;;;;;;;29.13;20.13;;;;;;;5.23;46.63;97946.72;4962774;28;20194;-71
2023/03/01 07:50:52;;;;;;;33.77;18.90;;;;;;;5.24;46.36;97935.38;4954377;28;20193;-72
2023/03/01 07:53:18;;;;;;;31.50;19.90;;;;;;;5.17;45.40;97926.31;4951067;28;20488;-70
2023/03/01 07:55:43;;;;;;;33.17;21.10;;;;;;;5.25;46.04;97934.44;4962904;28;20276;-72
2023/03/01 07:58:09;;;;;;;30.63;19.00;;;;;;;5.25;46.10;97931.00;4954206;28;20202;-70
2023/03/01 08:00:34;;;;;;;32.10;20.30;;;;;;;5.29;45.82;97919.47;4963698;28;20190;-72
2023/03/01 08:03:00;;;;;;;34.30;19.90;;;;;;;5.29;45.41;97925.53;4964636;28;20264;-71
2023/03/01 08:05:26;;;;;;;33.43;21.03;;;;;;;5.29;45.74;97932.47;4956348;28;20281;-71
2023/03/01 08:07:52;;;;;;;32.63;20.30;;;;;;;5.22;45.96;97925.09;4954779;28;20450;-70
2023/03/01 08:10:17;;;;;;;32.07;20.07;;;;;;;5.31;45.29;97922.81;4949618;28;20427;-70
2023/03/01 08:12:43;;;;;;;30.40;20.40;;;;;;;5.33;44.74;97926.97;4955566;28;20185;-72
2023/03/01 08:15:09;;;;;;;31.83;20.27;;;;;;;5.46;45.63;97926.16;4960305;28;20551;-71
2023/03/01 08:17:34;;;;;;;35.57;20.50;;;;;;;5.65;45.29;97923.16;4952029;28;20249;-72
2023/03/01 08:20:00;;;;;;;32.90;21.07;;;;;;;5.84;44.76;97920.97;4952347;28;20788;-72
2023/03/01 08:22:25;;;;;;;31.57;20.03;;;;;;;6.07;44.56;97920.34;4951728;28;20178;-70
2023/03/01 08:24:51;;;;;;;29.53;19.50;;;;;;;6.26;43.85;97920.75;4948277;28;20205;-71
2023/03/01 08:27:16;;;;;;;31.63;20.30;;;;;;;6.50;43.38;97926.91;4956416;28;20762;-71
2023/03/01 08:29:42;;;;;;;32.13;20.73;;;;;;;6.73;42.53;97917.47;4952169;28;20194;-71
2023/03/01 08:32:08;;;;;;;38.53;19.77;;;;;;;7.00;42.12;97919.81;4960493;28;20520;-71
2023/03/01 08:34:35;;;;;;;30.97;18.97;;;;;;;7.18;41.42;97916.81;4955248;28;20182;-73
2023/03/01 08:37:01;;;;;;;32.10;20.83;;;;;;;7.44;41.82;97907.03;4953271;28;20194;-71
2023/03/01 08:39:27;;;;;;;32.60;20.90;;;;;;;7.67;40.53;97907.94;4943203;29;20497;-72
2023/03/01 08:41:52;;;;;;;31.03;20.93;;;;;;;7.96;40.12;97910.09;4934641;28;20181;-72
2023/03/01 08:44:19;;;;;;;32.87;20.43;;;;;;;8.23;39.72;97908.91;4926370;29;21011;-71
2023/03/01 08:46:45;;;;;;;29.83;20.67;;;;;;;8.49;38.72;97913.03;4954516;28;20213;-70
2023/03/01 08:49:13;;;;;;;28.97;20.87;;;;;;;8.52;38.02;97903.16;4952613;28;20425;-70
2023/03/01 08:51:39;;;;;;;34.90;21.77;;;;;;;8.76;38.59;97900.38;4954972;28;20418;-71
2023/03/01 08:54:11;;;;;;;27.13;19.40;;;;;;;8.88;37.69;97910.78;4952896;28;20421;-73
2023/03/01 08:56:37;;;;;;;31.00;21.53;;;;;;;9.06;37.44;97901.47;4951528;28;20256;-72
2023/03/01 08:59:02;;;;;;;30.00;19.83;;;;;;;9.14;37.39;97895.56;4953270;28;20544;-72
2023/03/01 09:01:28;;;;;;;31.10;22.77;;;;;;;9.18;37.00;97897.00;4951405;28;20253;-71
2023/03/01 09:03:53;;;;;;;32.90;20.57;;;;;;;9.40;36.79;97891.78;4964637;28;20170;-72
2023/03/01 09:06:19;;;;;;;32.47;20.17;;;;;;;9.60;36.87;97892.72;4939211;29;20341;-72
2023/03/01 09:08:46;;;;;;;28.67;19.70;;;;;;;9.84;36.06;97887.19;4950936;28;20547;-71
2023/03/01 09:11:15;;;;;;;32.30;20.37;;;;;;;9.82;35.36;97886.50;4950922;28;20183;-72
2023/03/01 09:13:41;;;;;;;30.37;20.30;;;;;;;9.96;36.41;97883.50;4955567;28;20808;-72
2023/03/01 09:16:07;;;;;;;29.10;21.00;;;;;;;10.10;35.41;97882.34;4962957;28;20449;-72
2023/03/01 09:18:34;;;;;;;30.60;21.10;;;;;;;10.16;34.99;97878.34;4944270;28;20710;-72
2023/03/01 09:21:08;;;;;;;32.90;21.80;;;;;;;10.04;35.54;97871.56;4950916;28;20422;-71
2023/03/01 09:23:36;;;;;;;29.27;21.23;;;;;;;10.17;35.43;97861.69;4958389;28;20458;-73
2023/03/01 09:26:02;;;;;;;32.10;21.40;;;;;;;10.10;35.13;97863.16;4951220;28;20441;-72
2023/03/01 09:28:27;;;;;;;29.80;19.53;;;;;;;10.16;34.77;97857.41;4951327;28;20422;-72
2023/03/01 09:30:52;;;;;;;29.30;20.53;;;;;;;10.19;34.88;97862.38;4955173;28;20264;-72
2023/03/01 09:33:18;;;;;;;30.33;20.60;;;;;;;10.34;34.99;97864.59;4955983;28;20262;-73
2023/03/01 09:35:46;;;;;;;32.83;20.00;;;;;;;10.48;34.77;97856.38;4950856;28;20325;-71
2023/03/01 09:38:14;;;;;;;31.70;20.70;;;;;;;10.71;34.58;97851.72;4951104;28;20210;-72
2023/03/01 09:40:46;;;;;;;36.17;21.73;;;;;;;10.89;33.85;97854.50;4950370;28;20434;-71
2023/03/01 09:43:20;;;;;;;27.23;19.80;;;;;;;10.82;33.78;97856.03;4960176;28;20807;-72
2023/03/01 09:45:46;;;;;;;27.93;19.90;;;;;;;10.72;33.79;97857.78;4951426;28;20449;-72
2023/03/01 09:48:22;;;;;;;29.93;21.10;;;;;;;10.95;34.08;97863.59;4951080;28;20422;-72
2023/03/01 09:50:48;;;;;;;30.63;20.80;;;;;;;11.01;33.85;97862.22;4932621;28;20512;-71
2023/03/01 09:53:16;;;;;;;30.97;20.80;;;;;;;11.00;33.21;97855.31;4958592;28;20506;-73
2023/03/01 09:55:59;;;;;;;32.50;21.20;;;;;;;11.12;33.09;97841.06;4951651;28;20425;-72
2023/03/01 09:58:39;;;;;;;28.67;20.50;;;;;;;11.19;33.30;97844.81;4945390;28;20475;-71
2023/03/01 10:01:35;;;;;;;32.07;22.07;;;;;;;11.32;33.49;97849.75;4949951;28;20513;-72
2023/03/01 10:04:12;;;;;;;29.13;20.33;;;;;;;11.89;32.77;97850.69;4948540;28;20414;-73
2023/03/01 10:06:41;;;;;;;31.20;21.00;;;;;;;12.17;31.71;97843.66;4951789;28;20445;-72
2023/03/01 10:09:10;;;;;;;30.60;20.43;;;;;;;12.44;32.02;97828.81;4955807;28;20906;-72
2023/03/01 10:11:44;;;;;;;35.33;21.00;;;;;;;12.58;30.90;97827.50;4933244;28;20414;-71
2023/03/01 10:14:29;;;;;;;32.67;20.80;;;;;;;12.41;30.66;97823.91;4930246;29;20503;-73
2023/03/01 10:17:03;;;;;;;28.07;19.43;;;;;;;12.50;30.87;97817.72;4949916;28;20506;-73
2023/03/01 10:19:49;;;;;;;28.13;20.10;;;;;;;12.49;30.66;97813.44;4949010;28;20715;-72
2023/03/01 10:22:35;;;;;;;29.93;19.83;;;;;;;12.41;30.75;97819.44;4947697;28;20449;-72
2023/03/01 10:25:02;;;;;;;27.43;20.70;;;;;;;12.65;30.79;97812.78;4929313;28;20436;-72
2023/03/01 10:27:50;;;;;;;24.53;19.00;;;;;;;12.73;31.06;97810.19;4934684;29;20441;-71
2023/03/01 10:30:32;;;;;;;25.37;18.77;;;;;;;12.97;30.10;97802.66;4959432;28;20457;-72
2023/03/01 10:32:58;;;;;;;29.17;19.80;;;;;;;13.05;29.58;97800.94;4932781;29;20529;-72
2023/03/01 10:35:26;;;;;;;27.57;19.07;;;;;;;13.10;29.70;97802.28;4950278;28;20565;-72
2023/03/01 10:38:13;;;;;;;27.63;19.33;;;;;;;12.82;29.81;97800.56;4950404;28;20222;-72
2023/03/01 10:41:07;;;;;;;24.30;19.03;;;;;;;12.93;30.16;97796.88;4964174;28;20422;-72
2023/03/01 10:43:45;;;;;;;30.80;20.13;;;;;;;13.18;29.58;97794.44;4954767;28;20434;-71
2023/03/01 10:46:27;;;;;;;24.17;18.67;;;;;;;13.44;29.77;97791.81;4948113;28;20480;-71
2023/03/01 10:49:17;;;;;;;32.30;19.83;;;;;;;13.34;29.52;97799.81;4958916;28;20430;-71
2023/03/01 10:51:45;;;;;;;27.70;19.33;;;;;;;13.24;29.42;97795.63;4951086;28;20922;-72
2023/03/01 10:54:30;;;;;;;27.53;19.13;;;;;;;13.40;28.92;97793.13;4956332;28;20502;-72
2023/03/01 10:57:01;;;;;;;24.10;18.63;;;;;;;13.60;29.14;97785.84;4950419;28;20468;-72
2023/03/01 10:59:30;;;;;;;26.47;19.43;;;;;;;13.93;28.77;97779.84;4950228;28;20958;-72
2023/03/01 11:02:17;;;;;;;24.17;17.83;;;;;;;14.41;28.42;97777.50;4951364;28;20914;-72
2023/03/01 11:05:07;;;;;;;25.40;18.70;;;;;;;14.50;27.55;97768.59;4953557;28;21089;-73
2023/03/01 11:07:47;;;;;;;23.77;18.50;;;;;;;14.57;27.47;97772.25;4955304;28;20457;-72
2023/03/01 11:10:21;;;;;;;29.90;18.97;;;;;;;14.67;27.42;97763.34;4952512;28;20790;-73
2023/03/01 11:12:47;;;;;;;22.80;18.37;;;;;;;14.45;27.89;97760.38;4962567;28;20479;-71
2023/03/01 11:15:27;;;;;;;26.20;19.73;;;;;;;14.32;27.95;97758.19;4954334;28;20496;-73
2023/03/01 11:17:53;;;;;;;28.70;20.13;;;;;;;14.38;27.98;97756.72;4943898;28;20308;-73
2023/03/01 11:20:30;;;;;;;28.70;19.07;;;;;;;14.73;27.64;97746.91;4952987;28;20430;-72
2023/03/01 11:23:09;;;;;;;25.13;18.50;;;;;;;14.79;27.31;97740.94;4952281;28;20476;-72
2023/03/01 11:25:37;;;;;;;28.20;19.33;;;;;;;14.68;27.64;97749.19;4953562;28;20435;-72
2023/03/01 11:28:05;;;;;;;26.70;19.20;;;;;;;14.87;27.21;97733.00;4936001;29;20426;-72
2023/03/01 11:30:51;;;;;;;23.23;17.53;;;;;;;15.00;27.16;97732.50;4959214;28;20527;-72
2023/03/01 11:33:48;;;;;;;25.10;18.10;;;;;;;14.77;27.24;97727.09;4957721;28;20429;-72